createdAt,value
2019-06-07T00:02:00.473Z,101180.72
2019-06-07T00:04:31.200Z,101182.75
2019-06-07T00:07:02.025Z,101179.98
2019-06-07T00:09:32.743Z,101184.05
2019-06-07T00:12:03.586Z,101176.50
2019-06-07T00:14:34.334Z,101175.05
2019-06-07T00:17:05.149Z,101167.05
2019-06-07T00:19:35.866Z,101158.48
2019-06-07T00:22:17.541Z,101153.33
2019-06-07T00:24:40.114Z,101156.52
2019-06-07T00:27:11.619Z,101154.96
2019-06-07T00:29:44.550Z,101161.93
2019-06-07T00:32:20.078Z,101161.93
2019-06-07T00:34:47.852Z,101169.72
2019-06-07T00:37:20.678Z,101165.34
2019-06-07T00:40:13.546Z,101165.05
2019-06-07T00:42:26.385Z,101161.48
2019-06-07T00:44:57.129Z,101155.59
2019-06-07T00:47:27.931Z,101155.57
2019-06-07T00:49:58.690Z,101147.91
2019-06-07T00:55:01.909Z,101134.35
2019-06-07T00:57:32.665Z,101132.85
2019-06-07T01:00:03.399Z,101144.02
2019-06-07T01:02:35.685Z,101145.90
2019-06-07T01:05:06.798Z,101149.14
2019-06-07T01:07:37.659Z,101159.15
2019-06-07T01:10:10.825Z,101160.98
2019-06-07T01:12:41.778Z,101160.66
2019-06-07T01:15:15.745Z,101151.50
2019-06-07T01:18:25.999Z,101150.38
2019-06-07T01:20:21.239Z,101142.98
2019-06-07T01:22:52.020Z,101141.30
2019-06-07T01:25:26.239Z,101139.42
2019-06-07T01:27:55.225Z,101138.02
2019-06-07T01:30:26.854Z,101142.09
2019-06-07T01:32:57.603Z,101147.14
2019-06-07T01:35:29.946Z,101145.56
2019-06-07T01:38:02.990Z,101143.08
2019-06-07T01:40:33.767Z,101140.16
2019-06-07T01:43:04.527Z,101144.15
2019-06-07T01:45:35.318Z,101154.61
2019-06-07T01:48:06.223Z,101152.58
2019-06-07T01:50:37.004Z,101152.58
2019-06-07T01:53:07.782Z,101146.19
2019-06-07T01:55:39.564Z,101153.52
2019-06-07T01:58:10.353Z,101145.60
2019-06-07T02:00:42.027Z,101148.44
2019-06-07T02:03:13.816Z,101142.55
2019-06-07T02:05:45.480Z,101143.20
2019-06-07T02:08:16.152Z,101144.97
2019-06-07T02:10:50.459Z,101135.13
2019-06-07T02:13:21.342Z,101138.30
2019-06-07T02:15:52.132Z,101133.38
2019-06-07T02:18:23.816Z,101140.16
2019-06-07T02:20:55.247Z,101137.77
2019-06-07T02:23:30.298Z,101134.55
2019-06-07T02:25:58.498Z,101126.73
2019-06-07T02:28:42.238Z,101129.36
2019-06-07T02:31:01.684Z,101127.89
2019-06-07T02:33:39.162Z,101135.95
2019-06-07T02:36:04.783Z,101132.95
2019-06-07T02:38:37.302Z,101130.13
2019-06-07T02:41:08.083Z,101118.75
2019-06-07T02:43:38.759Z,101111.29
2019-06-07T02:46:34.707Z,101111.87
2019-06-07T02:48:59.379Z,101112.86
2019-06-07T02:51:40.041Z,101113.45
2019-06-07T02:54:02.605Z,101111.51
2019-06-07T02:56:45.414Z,101110.52
2019-06-07T02:59:05.936Z,101106.50
2019-06-07T03:01:41.400Z,101104.56
2019-06-07T03:04:09.577Z,101096.44
2019-06-07T03:06:43.933Z,101095.08
2019-06-07T03:09:13.463Z,101090.55
2019-06-07T03:11:44.349Z,101100.50
2019-06-07T03:14:16.925Z,101093.73
2019-06-07T03:16:56.494Z,101091.42
2019-06-07T03:19:37.295Z,101084.33
2019-06-07T03:22:06.762Z,101089.27
2019-06-07T03:24:41.691Z,101086.41
2019-06-07T03:27:34.044Z,101086.48
2019-06-07T03:29:42.750Z,101086.26
2019-06-07T03:32:13.539Z,101081.33
2019-06-07T03:34:44.362Z,101082.42
2019-06-07T03:37:15.120Z,101085.20
2019-06-07T03:39:45.941Z,101083.30
2019-06-07T03:42:16.717Z,101085.23
2019-06-07T03:44:47.546Z,101081.98
2019-06-07T03:47:18.303Z,101085.86
2019-06-07T03:49:49.117Z,101082.20
2019-06-07T03:52:19.892Z,101081.36
2019-06-07T03:54:51.665Z,101073.42
2019-06-07T03:57:22.456Z,101065.77
2019-06-07T03:59:53.279Z,101059.48
2019-06-07T04:02:25.038Z,101064.06
2019-06-07T04:04:55.822Z,101057.08
2019-06-07T04:07:28.963Z,101064.75
2019-06-07T04:10:00.051Z,101054.77
2019-06-07T04:12:34.272Z,101059.23
2019-06-07T04:15:04.350Z,101051.41
2019-06-07T04:17:38.765Z,101054.25
2019-06-07T04:20:07.740Z,101045.94
2019-06-07T04:22:40.483Z,101050.25
2019-06-07T04:25:11.685Z,101045.75
2019-06-07T04:27:42.428Z,101045.34
2019-06-07T04:30:13.524Z,101040.69
2019-06-07T04:32:45.125Z,101040.70
2019-06-07T04:35:16.066Z,101038.65
2019-06-07T04:37:46.917Z,101036.70
2019-06-07T04:40:17.666Z,101025.88
2019-06-07T04:42:48.543Z,101025.80
2019-06-07T04:45:33.724Z,101025.72
2019-06-07T04:47:53.335Z,101019.94
2019-06-07T04:50:24.021Z,101021.30
2019-06-07T04:52:54.682Z,101012.95
2019-06-07T04:55:25.473Z,101018.05
2019-06-07T04:57:56.219Z,101012.10
2019-06-07T05:00:52.431Z,101010.69
2019-06-07T05:03:04.367Z,101013.00
2019-06-07T05:05:39.646Z,101013.05
2019-06-07T05:08:18.282Z,101014.69
2019-06-07T05:10:43.058Z,101006.84
2019-06-07T05:13:12.428Z,101008.31
2019-06-07T05:15:43.144Z,101003.41
2019-06-07T05:18:13.776Z,101010.75
2019-06-07T05:20:44.912Z,101013.34
2019-06-07T05:23:59.468Z,101001.20
2019-06-07T05:25:48.186Z,100999.73
2019-06-07T05:28:32.449Z,101006.12
2019-06-07T05:31:07.274Z,100998.22
2019-06-07T05:33:46.017Z,100997.02
2019-06-07T05:36:16.700Z,100994.13
2019-06-07T05:38:48.324Z,100993.83
2019-06-07T05:41:20.030Z,100990.51
2019-06-07T05:44:12.107Z,100987.83
2019-06-07T05:46:37.970Z,100982.08
2019-06-07T05:49:06.523Z,100973.70
2019-06-07T05:51:38.083Z,100971.97
2019-06-07T05:54:10.565Z,100968.13
2019-06-07T05:56:43.265Z,100968.08
2019-06-07T05:59:20.881Z,100967.67
2019-06-07T06:02:03.229Z,100963.68
2019-06-07T06:04:30.435Z,100960.58
2019-06-07T06:07:01.070Z,100958.92
2019-06-07T06:09:35.341Z,100957.57
2019-06-07T06:12:05.262Z,100958.23
2019-06-07T06:14:39.568Z,100963.94
2019-06-07T06:17:12.451Z,100953.22
2019-06-07T06:19:47.351Z,100949.66
2019-06-07T06:22:18.672Z,100955.84
2019-06-07T06:30:17.287Z,100934.95
2019-06-07T06:32:56.846Z,100925.70
2019-06-07T06:35:20.344Z,100919.38
2019-06-07T06:37:53.166Z,100921.72
2019-06-07T06:40:24.418Z,100934.95
2019-06-07T06:43:04.565Z,100932.48
2019-06-07T06:45:35.235Z,100929.53
2019-06-07T06:48:20.772Z,100935.45
2019-06-07T06:50:54.792Z,100936.67
2019-06-07T06:53:31.430Z,100935.10
2019-06-07T06:56:02.096Z,100924.11
2019-06-07T06:59:17.998Z,100920.87
2019-06-07T07:01:07.180Z,100923.83
2019-06-07T07:06:25.136Z,100921.84
2019-06-07T07:08:44.257Z,100915.01
2019-06-07T07:11:15.680Z,100906.81
2019-06-07T07:13:49.898Z,100910.79
2019-06-07T07:16:19.679Z,100907.69
2019-06-07T07:18:53.104Z,100907.44
2019-06-07T07:21:25.987Z,100919.69
2019-06-07T07:24:19.472Z,100922.42
2019-06-07T07:26:39.622Z,100913.89
2019-06-07T07:29:17.065Z,100900.17
2019-06-07T07:31:50.801Z,100900.77
2019-06-07T07:34:35.512Z,100898.27
2019-06-07T07:37:03.859Z,100890.83
2019-06-07T07:39:37.608Z,100882.34
2019-06-07T07:42:20.665Z,100877.73
2019-06-07T07:44:43.294Z,100870.28
2019-06-07T07:47:17.166Z,100873.49
2019-06-07T07:49:52.196Z,100870.47
2019-06-07T07:52:32.374Z,100863.91
2019-06-07T07:55:06.277Z,100858.12
2019-06-07T07:57:41.711Z,100851.02
2019-06-07T08:00:49.721Z,100850.63
2019-06-07T08:02:56.124Z,100851.51
2019-06-07T08:05:39.975Z,100841.89
2019-06-07T08:08:01.577Z,100848.33
2019-06-07T08:10:30.002Z,100838.30
2019-06-07T08:13:23.438Z,100828.09
2019-06-07T08:15:35.569Z,100827.62
2019-06-07T08:18:06.312Z,100822.28
2019-06-07T08:20:37.053Z,100804.99
2019-06-07T08:23:07.772Z,100806.62
2019-06-07T08:25:38.400Z,100796.81
2019-06-07T08:28:09.775Z,100796.70
2019-06-07T08:30:52.344Z,100800.84
2019-06-07T08:33:26.030Z,100788.22
2019-06-07T08:36:17.144Z,100771.02
2019-06-07T08:38:33.779Z,100782.73
2019-06-07T08:41:14.187Z,100762.13
2019-06-07T08:43:44.959Z,100757.80
2019-06-07T08:46:21.357Z,100752.48
2019-06-07T08:48:53.974Z,100749.30
2019-06-07T08:51:32.544Z,100739.14
2019-06-07T08:54:21.781Z,100743.68
2019-06-07T08:56:53.692Z,100740.62
2019-06-07T08:59:24.063Z,100737.69
2019-06-07T09:02:01.836Z,100741.41
2019-06-07T09:04:35.263Z,100734.14
2019-06-07T09:07:22.492Z,100731.62
2019-06-07T09:10:09.401Z,100729.56
2019-06-07T09:12:40.945Z,100719.48
2019-06-07T09:15:21.327Z,100717.00
2019-06-07T09:18:30.249Z,100720.91
2019-06-07T09:20:35.608Z,100712.56
2019-06-07T09:22:58.966Z,100705.52
2019-06-07T09:25:31.610Z,100708.75
2019-06-07T09:28:10.243Z,100698.71
2019-06-07T09:30:40.778Z,100706.73
2019-06-07T09:33:11.798Z,100705.88
2019-06-07T09:35:42.447Z,100699.23
2019-06-07T09:38:25.606Z,100696.45
2019-06-07T09:40:48.796Z,100690.81
2019-06-07T09:45:52.706Z,100669.38
2019-06-07T09:49:08.972Z,100659.89
2019-06-07T09:51:02.111Z,100654.55
2019-06-07T09:53:31.235Z,100656.58
2019-06-07T09:56:06.909Z,100652.23
2019-06-07T09:58:51.710Z,100647.66
2019-06-07T10:01:13.968Z,100644.23
2019-06-07T10:03:51.892Z,100630.31
2019-06-07T10:06:22.554Z,100634.74
2019-06-07T10:11:28.777Z,100638.15
2019-06-07T10:14:02.454Z,100623.70
2019-06-07T10:16:46.144Z,100621.36
2019-06-07T10:19:07.403Z,100620.20
2019-06-07T10:21:43.391Z,100613.52
2019-06-07T10:24:14.104Z,100606.02
2019-06-07T10:26:44.733Z,100604.54
2019-06-07T10:29:16.417Z,100613.95
2019-06-07T10:31:47.092Z,100612.31
2019-06-07T10:34:25.748Z,100603.09
2019-06-07T10:37:03.351Z,100604.08
2019-06-07T10:39:47.637Z,100603.77
2019-06-07T10:42:07.631Z,100610.45
2019-06-07T10:44:38.670Z,100609.50
2019-06-07T10:47:13.814Z,100607.42
2019-06-07T10:49:44.510Z,100604.30
2019-06-07T10:52:17.171Z,100602.80
2019-06-07T10:54:47.749Z,100595.97
2019-06-07T10:57:19.375Z,100589.17
2019-06-07T10:59:50.989Z,100593.92
2019-06-07T11:02:32.379Z,100582.28
2019-06-07T11:05:07.958Z,100570.28
2019-06-07T11:07:38.789Z,100560.91
2019-06-07T11:10:15.635Z,100567.50
2019-06-07T11:12:42.039Z,100570.06
2019-06-07T11:15:24.743Z,100554.84
2019-06-07T11:17:55.342Z,100545.76
2019-06-07T11:20:27.042Z,100537.25
2019-06-07T11:22:57.751Z,100531.09
2019-06-07T11:25:29.359Z,100523.56
2019-06-07T11:28:04.220Z,100507.80
2019-06-07T11:30:34.895Z,100506.07
2019-06-07T11:33:16.221Z,100495.82
2019-06-07T11:35:45.796Z,100482.80
2019-06-07T11:38:16.513Z,100488.27
2019-06-07T11:40:48.121Z,100490.67
2019-06-07T11:43:19.171Z,100481.56
2019-06-07T11:45:49.787Z,100466.47
2019-06-07T11:48:38.821Z,100459.28
2019-06-07T11:51:10.782Z,100463.20
2019-06-07T11:53:47.829Z,100461.98
2019-06-07T11:56:19.423Z,100460.42
2019-06-07T11:58:50.054Z,100461.44
2019-06-07T12:01:27.989Z,100463.41
2019-06-07T12:04:07.449Z,100456.34
2019-06-07T12:06:38.803Z,100446.59
2019-06-07T12:09:10.658Z,100446.92
2019-06-07T12:11:47.445Z,100438.70
2019-06-07T12:14:19.390Z,100427.59
2019-06-07T12:16:51.249Z,100419.98
2019-06-07T12:19:21.907Z,100424.75
2019-06-07T12:21:53.666Z,100418.61
2019-06-07T12:24:24.506Z,100420.30
2019-06-07T12:26:55.150Z,100416.81
2019-06-07T12:29:25.855Z,100412.38
2019-06-07T12:31:57.432Z,100401.44
2019-06-07T12:34:34.559Z,100397.98
2019-06-07T12:37:05.237Z,100398.69
2019-06-07T12:39:35.765Z,100402.47
2019-06-07T12:42:07.591Z,100388.69
2019-06-07T12:44:38.315Z,100391.98
2019-06-07T12:47:08.889Z,100389.07
2019-06-07T12:49:39.674Z,100380.80
2019-06-07T12:52:13.907Z,100385.40
2019-06-07T12:54:42.675Z,100378.36
2019-06-07T12:57:13.912Z,100384.75
2019-06-07T12:59:45.716Z,100368.87
2019-06-07T13:02:24.007Z,100361.39
2019-06-07T13:04:55.752Z,100352.58
2019-06-07T13:07:27.881Z,100357.69
2019-06-07T13:09:58.718Z,100360.16
2019-06-07T13:12:35.736Z,100356.64
2019-06-07T13:15:06.785Z,100364.14
2019-06-07T13:17:52.543Z,100376.34
2019-06-07T13:20:24.684Z,100365.91
2019-06-07T13:22:56.482Z,100347.15
2019-06-07T13:25:44.972Z,100357.12
2019-06-07T13:28:13.628Z,100358.81
2019-06-07T13:30:44.291Z,100355.21
2019-06-07T13:33:16.888Z,100356.94
2019-06-07T13:35:47.734Z,100352.39
2019-06-07T13:38:29.064Z,100333.17
2019-06-07T13:40:59.981Z,100338.09
2019-06-07T13:43:30.792Z,100327.86
2019-06-07T13:46:02.479Z,100332.66
2019-06-07T13:48:33.135Z,100315.08
2019-06-07T13:51:03.727Z,100320.05
2019-06-07T13:53:34.374Z,100318.28
2019-06-07T13:56:05.005Z,100324.45
2019-06-07T13:58:35.652Z,100326.67
2019-06-07T14:01:08.649Z,100309.48
2019-06-07T14:03:39.282Z,100295.70
2019-06-07T14:06:19.373Z,100300.95
2019-06-07T14:08:51.028Z,100301.02
2019-06-07T14:11:21.662Z,100312.04
2019-06-07T14:13:54.312Z,100323.44
2019-06-07T14:16:26.158Z,100319.85
2019-06-07T14:18:56.977Z,100330.67
2019-06-07T14:21:28.742Z,100322.21
2019-06-07T14:23:59.443Z,100320.84
2019-06-07T14:26:36.372Z,100326.66
2019-06-07T14:29:07.073Z,100328.33
2019-06-07T14:31:37.582Z,100323.80
2019-06-07T14:34:08.327Z,100333.86
2019-06-07T14:36:39.066Z,100331.36
2019-06-07T14:39:09.691Z,100321.17
2019-06-07T14:41:40.216Z,100322.66
2019-06-07T14:44:10.888Z,100314.23
2019-06-07T14:46:53.417Z,100310.56
2019-06-07T14:49:30.518Z,100320.34
2019-06-07T14:52:01.279Z,100312.50
2019-06-07T14:54:39.237Z,100318.23
2019-06-07T14:57:17.372Z,100315.19
2019-06-07T14:59:47.972Z,100308.80
2019-06-07T15:02:18.643Z,100313.67
2019-06-07T15:04:49.209Z,100309.14
2019-06-07T15:07:20.778Z,100308.68
2019-06-07T15:09:51.378Z,100310.83
2019-06-07T15:12:25.371Z,100314.47
2019-06-07T15:14:54.314Z,100315.70
2019-06-07T15:17:26.366Z,100334.88
2019-06-07T15:19:57.297Z,100344.12
2019-06-07T15:22:28.050Z,100351.12
2019-06-07T15:24:59.681Z,100361.80
2019-06-07T15:27:31.274Z,100379.56
2019-06-07T15:30:11.298Z,100404.28
2019-06-07T15:32:42.275Z,100431.23
2019-06-07T15:35:12.936Z,100413.48
2019-06-07T15:37:45.653Z,100424.85
2019-06-07T15:40:16.371Z,100436.03
2019-06-07T15:42:52.797Z,100443.99
2019-06-07T15:45:19.422Z,100443.60
2019-06-07T15:47:59.555Z,100432.59
2019-06-07T15:50:40.529Z,100453.84
2019-06-07T15:53:15.256Z,100489.53
2019-06-07T15:55:45.984Z,100508.86
2019-06-07T15:58:16.597Z,100528.34
2019-06-07T16:00:49.970Z,100549.55
2019-06-07T16:03:23.245Z,100563.94
2019-06-07T16:05:54.751Z,100561.11
2019-06-07T16:08:25.330Z,100549.38
2019-06-07T16:10:55.923Z,100557.09
2019-06-07T16:13:38.830Z,100563.42
2019-06-07T16:16:10.430Z,100595.11
2019-06-07T16:18:41.587Z,100608.25
2019-06-07T16:21:12.265Z,100633.28
2019-06-07T16:23:44.096Z,100625.95
2019-06-07T16:26:14.759Z,100632.31
2019-06-07T16:28:45.360Z,100627.95
2019-06-07T16:31:19.948Z,100635.57
2019-06-07T16:33:51.578Z,100649.05
2019-06-07T16:36:22.205Z,100660.91
2019-06-07T16:38:52.758Z,100656.21
2019-06-07T16:41:23.429Z,100665.55
2019-06-07T16:43:54.008Z,100669.00
2019-06-07T16:46:24.735Z,100670.27
2019-06-07T16:48:55.304Z,100676.79
2019-06-07T16:51:25.899Z,100674.52
2019-06-07T16:53:56.590Z,100664.21
2019-06-07T16:56:27.254Z,100665.02
2019-06-07T16:58:57.869Z,100675.92
2019-06-07T17:01:28.535Z,100686.40
2019-06-07T17:03:59.261Z,100683.66
2019-06-07T17:06:29.834Z,100676.23
2019-06-07T17:09:00.483Z,100673.50
2019-06-07T17:11:33.307Z,100666.35
2019-06-07T17:14:10.778Z,100646.38
2019-06-07T17:16:46.156Z,100636.16
2019-06-07T17:19:33.395Z,100618.11
2019-06-07T17:22:19.376Z,100605.54
2019-06-07T17:24:50.043Z,100600.98
2019-06-07T17:27:20.668Z,100624.31
2019-06-07T17:29:54.484Z,100621.24
2019-06-07T17:32:25.161Z,100635.67
2019-06-07T17:34:55.849Z,100642.56
2019-06-07T17:37:41.584Z,100646.19
2019-06-07T17:40:17.615Z,100655.46
2019-06-07T17:42:52.438Z,100652.36
2019-06-07T17:45:23.005Z,100663.25
2019-06-07T17:47:53.591Z,100664.06
2019-06-07T17:50:24.413Z,100652.19
2019-06-07T17:52:55.111Z,100656.59
2019-06-07T17:55:25.786Z,100654.77
2019-06-07T17:57:56.364Z,100640.42
2019-06-07T18:00:33.686Z,100640.16
2019-06-07T18:03:04.410Z,100633.37
2019-06-07T18:05:35.086Z,100614.28
2019-06-07T18:08:05.827Z,100594.09
2019-06-07T18:10:37.840Z,100579.95
2019-06-07T18:13:08.488Z,100582.87
2019-06-07T18:15:40.991Z,100570.39
2019-06-07T18:18:11.839Z,100590.27
2019-06-07T18:20:42.687Z,100572.33
2019-06-07T18:23:13.448Z,100575.28
2019-06-07T18:25:44.015Z,100589.05
2019-06-07T18:28:14.703Z,100585.44
2019-06-07T18:30:46.529Z,100599.55
2019-06-07T18:33:20.249Z,100602.61
2019-06-07T18:35:51.329Z,100585.75
2019-06-07T18:38:22.035Z,100627.41
2019-06-07T18:40:53.282Z,100656.64
2019-06-07T18:43:24.898Z,100648.70
2019-06-07T18:45:55.987Z,100658.81
2019-06-07T18:48:27.428Z,100669.47
2019-06-07T18:50:59.562Z,100679.19
2019-06-07T18:53:30.306Z,100659.72
2019-06-07T18:56:00.896Z,100661.14
2019-06-07T18:58:32.699Z,100640.71
2019-06-07T19:01:03.450Z,100642.73
2019-06-07T19:03:34.290Z,100620.72
2019-06-07T19:06:07.200Z,100625.33
2019-06-07T19:08:37.882Z,100625.03
2019-06-07T19:11:08.611Z,100613.87
2019-06-07T19:13:41.261Z,100613.59
2019-06-07T19:16:12.040Z,100590.18
2019-06-07T19:18:44.875Z,100572.39
2019-06-07T19:21:16.567Z,100550.46
2019-06-07T19:23:47.442Z,100545.63
2019-06-07T19:26:18.178Z,100588.56
2019-06-07T19:28:48.979Z,100616.44
2019-06-07T19:31:19.833Z,100612.42
2019-06-07T19:33:51.039Z,100606.98
2019-06-07T19:36:24.761Z,100627.50
2019-06-07T19:39:00.011Z,100625.81
2019-06-07T19:41:50.362Z,100629.76
2019-06-07T19:44:22.087Z,100620.86
2019-06-07T19:46:52.863Z,100623.41
2019-06-07T19:49:23.667Z,100620.31
2019-06-07T19:51:54.945Z,100633.09
2019-06-07T19:54:25.695Z,100645.82
2019-06-07T19:56:57.471Z,100634.77
2019-06-07T19:59:29.104Z,100634.67
2019-06-07T20:02:02.215Z,100634.13
2019-06-07T20:04:32.975Z,100629.01
2019-06-07T20:07:05.579Z,100624.78
2019-06-07T20:09:36.154Z,100631.52
2019-06-07T20:12:06.797Z,100641.28
2019-06-07T20:14:37.559Z,100659.53
2019-06-07T20:17:08.208Z,100679.45
2019-06-07T20:19:38.894Z,100680.39
2019-06-07T20:22:09.644Z,100677.61
2019-06-07T20:24:42.612Z,100676.16
2019-06-07T20:27:13.218Z,100678.75
2019-06-07T20:29:44.153Z,100671.13
2019-06-07T20:32:15.432Z,100682.09
2019-06-07T20:34:46.092Z,100683.27
2019-06-07T20:37:16.844Z,100677.44
2019-06-07T20:39:48.509Z,100676.86
2019-06-07T20:42:19.235Z,100683.08
2019-06-07T20:44:49.929Z,100662.91
2019-06-07T20:47:20.495Z,100658.19
2019-06-07T20:49:51.182Z,100657.22
2019-06-07T20:52:22.200Z,100658.15
2019-06-07T20:54:52.876Z,100660.09
2019-06-07T20:57:23.541Z,100657.37
2019-06-07T20:59:54.379Z,100666.27
2019-06-07T21:02:25.202Z,100664.70
2019-06-07T21:04:56.074Z,100653.73
2019-06-07T21:07:26.886Z,100650.03
2019-06-07T21:10:05.816Z,100655.82
2019-06-07T21:12:47.912Z,100646.83
2019-06-07T21:15:18.692Z,100646.73
2019-06-07T21:17:53.189Z,100655.15
2019-06-07T21:20:25.899Z,100654.91
2019-06-07T21:22:58.545Z,100657.27
2019-06-07T21:25:29.115Z,100656.64
2019-06-07T21:28:00.926Z,100665.95
2019-06-07T21:30:31.832Z,100660.00
2019-06-07T21:33:03.540Z,100669.13
2019-06-07T21:35:34.300Z,100671.75
2019-06-07T21:38:06.077Z,100686.22
2019-06-07T21:40:36.985Z,100690.79
2019-06-07T21:43:10.551Z,100693.02
2019-06-07T21:45:41.981Z,100696.02
2019-06-07T21:48:14.453Z,100702.56
2019-06-07T21:50:46.510Z,100692.56
2019-06-07T21:53:17.325Z,100698.81
2019-06-07T21:55:47.936Z,100701.80
2019-06-07T21:58:18.546Z,100699.58
2019-06-07T22:01:21.658Z,100706.38
2019-06-07T22:03:52.433Z,100705.75
2019-06-07T22:06:32.152Z,100717.50
2019-06-07T22:09:05.596Z,100710.59
2019-06-07T22:11:36.333Z,100720.57
2019-06-07T22:14:08.361Z,100722.42
2019-06-07T22:16:39.011Z,100728.34
2019-06-07T22:19:10.771Z,100728.73
2019-06-07T22:22:02.449Z,100726.88
2019-06-07T22:24:26.272Z,100727.83
2019-06-07T22:26:56.858Z,100723.02
2019-06-07T22:29:28.527Z,100721.79
2019-06-07T22:31:59.296Z,100719.56
2019-06-07T22:34:29.903Z,100722.49
2019-06-07T22:37:00.541Z,100719.03
2019-06-07T22:39:31.299Z,100731.70
2019-06-07T22:42:08.720Z,100723.64
2019-06-07T22:44:40.205Z,100720.64
2019-06-07T22:47:16.717Z,100711.15
2019-06-07T22:49:47.341Z,100714.46
2019-06-07T22:52:18.440Z,100723.46
2019-06-07T22:54:49.321Z,100723.60
2019-06-07T22:57:21.633Z,100722.28
2019-06-07T22:59:54.224Z,100719.41
2019-06-07T23:02:24.841Z,100736.51
2019-06-07T23:04:55.322Z,100738.60
2019-06-07T23:07:25.981Z,100733.65
2019-06-07T23:10:03.636Z,100738.60
2019-06-07T23:12:40.664Z,100748.86
2019-06-07T23:15:13.792Z,100742.30
2019-06-07T23:17:46.397Z,100738.98
2019-06-07T23:20:18.086Z,100744.64
2019-06-07T23:22:49.764Z,100744.67
2019-06-07T23:25:24.181Z,100746.48
2019-06-07T23:27:52.801Z,100743.52
2019-06-07T23:30:23.558Z,100737.55
2019-06-07T23:33:04.618Z,100740.66
2019-06-07T23:35:35.177Z,100746.14
2019-06-07T23:38:05.843Z,100735.84
2019-06-07T23:40:45.543Z,100761.34
2019-06-07T23:43:17.475Z,100753.29
2019-06-07T23:46:00.585Z,100767.55
2019-06-07T23:48:31.189Z,100762.95
2019-06-07T23:51:01.776Z,100762.95
2019-06-07T23:53:32.443Z,100760.23
2019-06-07T23:56:03.151Z,100766.78
2019-06-07T23:58:40.038Z,100766.78
